sensor_id;sensor_type;location;lat;lon;timestamp;P1;durP1;ratioP1;P2;durP2;ratioP2
25331;SDS011;13284;52.748;13.452;2023-03-01T00:01:12;3.53;;;3.23;;
25331;SDS011;13284;52.748;13.452;2023-03-01T00:03:40;3.20;;;2.67;;
25331;SDS011;13284;52.748;13.452;2023-03-01T00:06:07;3.40;;;3.10;;
25331;SDS011;13284;52.748;13.452;2023-03-01T00:08:32;5.00;;;3.60;;
25331;SDS011;13284;52.748;13.452;2023-03-01T00:11:06;3.90;;;3.07;;
25331;SDS011;13284;52.748;13.452;2023-03-01T00:13:34;4.18;;;3.30;;
25331;SDS011;13284;52.748;13.452;2023-03-01T00:16:04;3.43;;;3.00;;
25331;SDS011;13284;52.748;13.452;2023-03-01T00:18:31;5.30;;;3.00;;
25331;SDS011;13284;52.748;13.452;2023-03-01T00:20:57;3.97;;;2.63;;
25331;SDS011;13284;52.748;13.452;2023-03-01T00:23:23;2.80;;;2.60;;
25331;SDS011;13284;52.748;13.452;2023-03-01T00:25:49;3.90;;;2.67;;
25331;SDS011;13284;52.748;13.452;2023-03-01T00:28:18;6.20;;;3.57;;
25331;SDS011;13284;52.748;13.452;2023-03-01T00:30:44;3.90;;;3.60;;
25331;SDS011;13284;52.748;13.452;2023-03-01T00:33:10;5.70;;;3.17;;
25331;SDS011;13284;52.748;13.452;2023-03-01T00:35:35;5.10;;;3.43;;
25331;SDS011;13284;52.748;13.452;2023-03-01T00:38:01;3.30;;;2.87;;
25331;SDS011;13284;52.748;13.452;2023-03-01T00:40:27;4.50;;;2.97;;
25331;SDS011;13284;52.748;13.452;2023-03-01T00:42:54;5.73;;;3.50;;
25331;SDS011;13284;52.748;13.452;2023-03-01T00:45:20;4.73;;;3.47;;
25331;SDS011;13284;52.748;13.452;2023-03-01T00:47:46;5.43;;;3.53;;
25331;SDS011;13284;52.748;13.452;2023-03-01T00:50:13;5.47;;;3.23;;
25331;SDS011;13284;52.748;13.452;2023-03-01T00:52:39;3.13;;;2.83;;
25331;SDS011;13284;52.748;13.452;2023-03-01T00:55:04;5.67;;;2.97;;
25331;SDS011;13284;52.748;13.452;2023-03-01T00:57:33;2.97;;;2.60;;
25331;SDS011;13284;52.748;13.452;2023-03-01T00:59:59;5.43;;;2.90;;
25331;SDS011;13284;52.748;13.452;2023-03-01T01:02:24;4.70;;;2.93;;
25331;SDS011;13284;52.748;13.452;2023-03-01T01:04:50;5.63;;;2.20;;
25331;SDS011;13284;52.748;13.452;2023-03-01T01:07:16;4.90;;;2.63;;
25331;SDS011;13284;52.748;13.452;2023-03-01T01:09:42;3.27;;;2.10;;
25331;SDS011;13284;52.748;13.452;2023-03-01T01:12:08;3.57;;;3.03;;
25331;SDS011;13284;52.748;13.452;2023-03-01T01:14:36;2.70;;;2.47;;
25331;SDS011;13284;52.748;13.452;2023-03-01T01:17:01;2.93;;;2.30;;
25331;SDS011;13284;52.748;13.452;2023-03-01T01:19:27;2.50;;;2.20;;
25331;SDS011;13284;52.748;13.452;2023-03-01T01:21:52;2.20;;;1.73;;
25331;SDS011;13284;52.748;13.452;2023-03-01T01:24:18;4.83;;;2.27;;
25331;SDS011;13284;52.748;13.452;2023-03-01T01:26:44;2.37;;;2.17;;
25331;SDS011;13284;52.748;13.452;2023-03-01T01:29:10;3.50;;;2.50;;
25331;SDS011;13284;52.748;13.452;2023-03-01T01:31:36;6.40;;;2.30;;
25331;SDS011;13284;52.748;13.452;2023-03-01T01:34:04;2.20;;;1.73;;
25331;SDS011;13284;52.748;13.452;2023-03-01T01:36:31;2.60;;;1.60;;
25331;SDS011;13284;52.748;13.452;2023-03-01T01:38:57;3.57;;;1.87;;
25331;SDS011;13284;52.748;13.452;2023-03-01T01:41:23;2.23;;;1.77;;
25331;SDS011;13284;52.748;13.452;2023-03-01T01:44:10;2.47;;;1.90;;
25331;SDS011;13284;52.748;13.452;2023-03-01T01:46:50;9.00;;;2.13;;
25331;SDS011;13284;52.748;13.452;2023-03-01T01:49:36;2.93;;;1.77;;
25331;SDS011;13284;52.748;13.452;2023-03-01T01:52:17;2.30;;;1.97;;
25331;SDS011;13284;52.748;13.452;2023-03-01T01:54:57;1.83;;;1.67;;
25331;SDS011;13284;52.748;13.452;2023-03-01T01:57:40;5.07;;;2.50;;
25331;SDS011;13284;52.748;13.452;2023-03-01T02:00:12;2.93;;;2.30;;
25331;SDS011;13284;52.748;13.452;2023-03-01T02:02:40;4.47;;;1.90;;
25331;SDS011;13284;52.748;13.452;2023-03-01T02:05:28;4.10;;;2.40;;
25331;SDS011;13284;52.748;13.452;2023-03-01T02:07:57;2.50;;;1.63;;
25331;SDS011;13284;52.748;13.452;2023-03-01T02:10:23;1.70;;;1.60;;
25331;SDS011;13284;52.748;13.452;2023-03-01T02:12:50;3.10;;;2.13;;
25331;SDS011;13284;52.748;13.452;2023-03-01T02:15:16;2.00;;;1.90;;
25331;SDS011;13284;52.748;13.452;2023-03-01T02:17:42;4.40;;;2.67;;
25331;SDS011;13284;52.748;13.452;2023-03-01T02:22:42;6.97;;;2.40;;
25331;SDS011;13284;52.748;13.452;2023-03-01T02:27:40;3.93;;;1.87;;
25331;SDS011;13284;52.748;13.452;2023-03-01T02:30:13;2.47;;;1.77;;
25331;SDS011;13284;52.748;13.452;2023-03-01T02:32:41;2.50;;;2.10;;
25331;SDS011;13284;52.748;13.452;2023-03-01T02:35:12;2.67;;;1.90;;
25331;SDS011;13284;52.748;13.452;2023-03-01T02:37:39;2.53;;;2.10;;
25331;SDS011;13284;52.748;13.452;2023-03-01T02:40:10;3.80;;;1.83;;
25331;SDS011;13284;52.748;13.452;2023-03-01T02:42:44;3.40;;;1.67;;
25331;SDS011;13284;52.748;13.452;2023-03-01T02:45:16;2.33;;;1.90;;
25331;SDS011;13284;52.748;13.452;2023-03-01T02:47:42;3.70;;;2.10;;
25331;SDS011;13284;52.748;13.452;2023-03-01T02:50:11;3.13;;;1.97;;
25331;SDS011;13284;52.748;13.452;2023-03-01T02:55:30;2.87;;;1.43;;
25331;SDS011;13284;52.748;13.452;2023-03-01T02:57:55;2.13;;;1.93;;
25331;SDS011;13284;52.748;13.452;2023-03-01T03:00:26;1.90;;;1.80;;
25331;SDS011;13284;52.748;13.452;2023-03-01T03:02:55;2.60;;;1.93;;
25331;SDS011;13284;52.748;13.452;2023-03-01T03:05:31;1.90;;;1.63;;
25331;SDS011;13284;52.748;13.452;2023-03-01T03:07:57;3.27;;;1.50;;
25331;SDS011;13284;52.748;13.452;2023-03-01T03:10:25;4.70;;;1.77;;
25331;SDS011;13284;52.748;13.452;2023-03-01T03:12:55;2.67;;;1.73;;
25331;SDS011;13284;52.748;13.452;2023-03-01T03:15:25;2.13;;;1.60;;
25331;SDS011;13284;52.748;13.452;2023-03-01T03:17:52;1.50;;;1.30;;
25331;SDS011;13284;52.748;13.452;2023-03-01T03:20:19;2.97;;;2.03;;
25331;SDS011;13284;52.748;13.452;2023-03-01T03:22:47;2.90;;;2.03;;
25331;SDS011;13284;52.748;13.452;2023-03-01T03:25:15;4.97;;;2.13;;
25331;SDS011;13284;52.748;13.452;2023-03-01T03:27:42;3.80;;;2.13;;
25331;SDS011;13284;52.748;13.452;2023-03-01T03:30:10;3.73;;;2.40;;
25331;SDS011;13284;52.748;13.452;2023-03-01T03:32:42;2.63;;;2.13;;
25331;SDS011;13284;52.748;13.452;2023-03-01T03:35:25;2.63;;;2.20;;
25331;SDS011;13284;52.748;13.452;2023-03-01T03:37:54;4.33;;;1.90;;
25331;SDS011;13284;52.748;13.452;2023-03-01T03:40:27;2.30;;;2.10;;
25331;SDS011;13284;52.748;13.452;2023-03-01T03:43:10;2.80;;;2.40;;
25331;SDS011;13284;52.748;13.452;2023-03-01T03:45:37;2.83;;;1.80;;
25331;SDS011;13284;52.748;13.452;2023-03-01T03:48:03;2.83;;;1.83;;
25331;SDS011;13284;52.748;13.452;2023-03-01T03:50:30;4.63;;;1.73;;
25331;SDS011;13284;52.748;13.452;2023-03-01T03:52:56;2.23;;;2.03;;
25331;SDS011;13284;52.748;13.452;2023-03-01T03:55:22;3.03;;;1.70;;
25331;SDS011;13284;52.748;13.452;2023-03-01T03:57:47;1.73;;;1.60;;
25331;SDS011;13284;52.748;13.452;2023-03-01T04:00:17;2.80;;;1.97;;
25331;SDS011;13284;52.748;13.452;2023-03-01T04:02:45;2.80;;;2.03;;
25331;SDS011;13284;52.748;13.452;2023-03-01T04:05:12;3.73;;;2.10;;
25331;SDS011;13284;52.748;13.452;2023-03-01T04:07:40;2.13;;;1.90;;
25331;SDS011;13284;52.748;13.452;2023-03-01T04:10:09;2.17;;;1.97;;
25331;SDS011;13284;52.748;13.452;2023-03-01T04:12:36;2.60;;;2.13;;
25331;SDS011;13284;52.748;13.452;2023-03-01T04:15:03;1.90;;;1.70;;
25331;SDS011;13284;52.748;13.452;2023-03-01T04:17:42;1.83;;;1.63;;
25331;SDS011;13284;52.748;13.452;2023-03-01T04:20:10;2.87;;;2.17;;
25331;SDS011;13284;52.748;13.452;2023-03-01T04:22:37;2.00;;;1.90;;
25331;SDS011;13284;52.748;13.452;2023-03-01T04:25:04;5.80;;;3.03;;
25331;SDS011;13284;52.748;13.452;2023-03-01T04:27:32;7.63;;;3.93;;
25331;SDS011;13284;52.748;13.452;2023-03-01T04:30:01;1.90;;;1.63;;
25331;SDS011;13284;52.748;13.452;2023-03-01T04:32:28;4.10;;;2.90;;
25331;SDS011;13284;52.748;13.452;2023-03-01T04:34:54;2.73;;;2.50;;
25331;SDS011;13284;52.748;13.452;2023-03-01T04:37:19;3.57;;;2.63;;
25331;SDS011;13284;52.748;13.452;2023-03-01T04:39:45;3.67;;;3.10;;
25331;SDS011;13284;52.748;13.452;2023-03-01T04:42:12;2.87;;;2.67;;
25331;SDS011;13284;52.748;13.452;2023-03-01T04:44:38;3.27;;;2.53;;
25331;SDS011;13284;52.748;13.452;2023-03-01T04:47:04;4.50;;;2.73;;
25331;SDS011;13284;52.748;13.452;2023-03-01T04:49:30;6.13;;;2.57;;
25331;SDS011;13284;52.748;13.452;2023-03-01T04:51:56;4.67;;;2.60;;
25331;SDS011;13284;52.748;13.452;2023-03-01T04:54:26;7.37;;;2.77;;
25331;SDS011;13284;52.748;13.452;2023-03-01T04:56:59;5.60;;;3.67;;
25331;SDS011;13284;52.748;13.452;2023-03-01T04:59:25;3.10;;;2.63;;
25331;SDS011;13284;52.748;13.452;2023-03-01T05:01:51;2.70;;;2.10;;
25331;SDS011;13284;52.748;13.452;2023-03-01T05:04:20;4.80;;;3.40;;
25331;SDS011;13284;52.748;13.452;2023-03-01T05:06:46;5.70;;;2.60;;
25331;SDS011;13284;52.748;13.452;2023-03-01T05:09:13;3.40;;;3.10;;
25331;SDS011;13284;52.748;13.452;2023-03-01T05:11:38;2.97;;;2.50;;
25331;SDS011;13284;52.748;13.452;2023-03-01T05:14:04;3.60;;;2.60;;
25331;SDS011;13284;52.748;13.452;2023-03-01T05:16:31;8.43;;;3.37;;
25331;SDS011;13284;52.748;13.452;2023-03-01T05:18:57;6.10;;;4.10;;
25331;SDS011;13284;52.748;13.452;2023-03-01T05:21:23;5.23;;;4.50;;
25331;SDS011;13284;52.748;13.452;2023-03-01T05:23:49;3.90;;;2.70;;
25331;SDS011;13284;52.748;13.452;2023-03-01T05:26:15;4.30;;;3.10;;
25331;SDS011;13284;52.748;13.452;2023-03-01T05:28:42;4.57;;;3.30;;
25331;SDS011;13284;52.748;13.452;2023-03-01T05:31:08;2.50;;;2.30;;
25331;SDS011;13284;52.748;13.452;2023-03-01T05:33:35;5.57;;;3.00;;
25331;SDS011;13284;52.748;13.452;2023-03-01T05:36:05;5.67;;;2.33;;
25331;SDS011;13284;52.748;13.452;2023-03-01T05:38:34;5.17;;;2.40;;
25331;SDS011;13284;52.748;13.452;2023-03-01T05:41:00;3.10;;;2.37;;
25331;SDS011;13284;52.748;13.452;2023-03-01T05:43:29;3.07;;;2.57;;
25331;SDS011;13284;52.748;13.452;2023-03-01T05:45:57;4.50;;;2.57;;
25331;SDS011;13284;52.748;13.452;2023-03-01T05:48:23;8.10;;;2.40;;
25331;SDS011;13284;52.748;13.452;2023-03-01T05:50:48;4.80;;;3.47;;
25331;SDS011;13284;52.748;13.452;2023-03-01T05:53:15;3.80;;;2.37;;
25331;SDS011;13284;52.748;13.452;2023-03-01T05:55:43;3.00;;;2.00;;
25331;SDS011;13284;52.748;13.452;2023-03-01T05:58:12;4.50;;;3.10;;
25331;SDS011;13284;52.748;13.452;2023-03-01T06:00:41;3.47;;;1.90;;
25331;SDS011;13284;52.748;13.452;2023-03-01T06:03:09;2.43;;;1.80;;
25331;SDS011;13284;52.748;13.452;2023-03-01T06:05:36;5.20;;;3.07;;
25331;SDS011;13284;52.748;13.452;2023-03-01T06:08:02;5.43;;;2.33;;
25331;SDS011;13284;52.748;13.452;2023-03-01T06:10:28;2.67;;;2.37;;
25331;SDS011;13284;52.748;13.452;2023-03-01T06:12:54;5.20;;;2.80;;
25331;SDS011;13284;52.748;13.452;2023-03-01T06:15:23;5.13;;;2.90;;
25331;SDS011;13284;52.748;13.452;2023-03-01T06:17:49;4.40;;;2.20;;
25331;SDS011;13284;52.748;13.452;2023-03-01T06:20:16;4.07;;;2.93;;
25331;SDS011;13284;52.748;13.452;2023-03-01T06:22:43;3.50;;;2.20;;
25331;SDS011;13284;52.748;13.452;2023-03-01T06:25:10;7.53;;;5.00;;
25331;SDS011;13284;52.748;13.452;2023-03-01T06:27:37;5.27;;;2.70;;
25331;SDS011;13284;52.748;13.452;2023-03-01T06:30:03;4.70;;;2.90;;
25331;SDS011;13284;52.748;13.452;2023-03-01T06:32:29;4.40;;;2.50;;
25331;SDS011;13284;52.748;13.452;2023-03-01T06:34:56;3.70;;;2.23;;
25331;SDS011;13284;52.748;13.452;2023-03-01T06:37:26;3.57;;;2.50;;
25331;SDS011;13284;52.748;13.452;2023-03-01T06:39:51;3.37;;;3.10;;
25331;SDS011;13284;52.748;13.452;2023-03-01T06:42:17;5.93;;;2.70;;
25331;SDS011;13284;52.748;13.452;2023-03-01T06:44:43;2.73;;;2.40;;
25331;SDS011;13284;52.748;13.452;2023-03-01T06:47:10;6.93;;;3.00;;
25331;SDS011;13284;52.748;13.452;2023-03-01T06:49:36;6.80;;;4.40;;
25331;SDS011;13284;52.748;13.452;2023-03-01T06:52:01;6.53;;;3.80;;
25331;SDS011;13284;52.748;13.452;2023-03-01T06:54:27;8.80;;;4.83;;
25331;SDS011;13284;52.748;13.452;2023-03-01T06:56:52;10.43;;;5.40;;
25331;SDS011;13284;52.748;13.452;2023-03-01T06:59:18;12.00;;;7.47;;
25331;SDS011;13284;52.748;13.452;2023-03-01T07:01:44;10.00;;;6.40;;
25331;SDS011;13284;52.748;13.452;2023-03-01T07:04:10;9.97;;;5.47;;
25331;SDS011;13284;52.748;13.452;2023-03-01T07:06:37;10.40;;;4.87;;
25331;SDS011;13284;52.748;13.452;2023-03-01T07:09:02;7.13;;;5.20;;
25331;SDS011;13284;52.748;13.452;2023-03-01T07:11:28;5.53;;;3.23;;
25331;SDS011;13284;52.748;13.452;2023-03-01T07:13:53;5.23;;;3.50;;
25331;SDS011;13284;52.748;13.452;2023-03-01T07:16:20;5.70;;;3.47;;
25331;SDS011;13284;52.748;13.452;2023-03-01T07:18:45;3.70;;;3.40;;
25331;SDS011;13284;52.748;13.452;2023-03-01T07:21:12;4.80;;;3.60;;
25331;SDS011;13284;52.748;13.452;2023-03-01T07:23:38;8.57;;;3.20;;
25331;SDS011;13284;52.748;13.452;2023-03-01T07:26:04;5.40;;;3.17;;
25331;SDS011;13284;52.748;13.452;2023-03-01T07:28:32;4.17;;;3.57;;
25331;SDS011;13284;52.748;13.452;2023-03-01T07:31:04;3.70;;;2.37;;
25331;SDS011;13284;52.748;13.452;2023-03-01T07:33:30;3.90;;;2.97;;
25331;SDS011;13284;52.748;13.452;2023-03-01T07:36:00;7.00;;;3.20;;
25331;SDS011;13284;52.748;13.452;2023-03-01T07:38:32;3.80;;;3.47;;
25331;SDS011;13284;52.748;13.452;2023-03-01T07:41:04;6.70;;;3.60;;
25331;SDS011;13284;52.748;13.452;2023-03-01T07:43:30;4.90;;;2.90;;
25331;SDS011;13284;52.748;13.452;2023-03-01T07:46:03;5.87;;;3.63;;
25331;SDS011;13284;52.748;13.452;2023-03-01T07:48:29;4.60;;;3.63;;
25331;SDS011;13284;52.748;13.452;2023-03-01T07:50:59;8.20;;;4.63;;
25331;SDS011;13284;52.748;13.452;2023-03-01T07:53:26;14.50;;;9.03;;
25331;SDS011;13284;52.748;13.452;2023-03-01T07:56:05;16.77;;;11.20;;
25331;SDS011;13284;52.748;13.452;2023-03-01T07:58:36;15.10;;;8.83;;
25331;SDS011;13284;52.748;13.452;2023-03-01T08:01:08;8.57;;;5.20;;
25331;SDS011;13284;52.748;13.452;2023-03-01T08:03:36;9.73;;;5.77;;
25331;SDS011;13284;52.748;13.452;2023-03-01T08:06:03;12.17;;;6.73;;
25331;SDS011;13284;52.748;13.452;2023-03-01T08:08:32;12.73;;;6.83;;
25331;SDS011;13284;52.748;13.452;2023-03-01T08:10:59;13.60;;;7.20;;
25331;SDS011;13284;52.748;13.452;2023-03-01T08:13:26;9.37;;;6.70;;
25331;SDS011;13284;52.748;13.452;2023-03-01T08:16:00;9.10;;;5.53;;
25331;SDS011;13284;52.748;13.452;2023-03-01T08:18:29;8.43;;;5.40;;
25331;SDS011;13284;52.748;13.452;2023-03-01T08:20:55;6.63;;;5.63;;
25331;SDS011;13284;52.748;13.452;2023-03-01T08:23:20;9.53;;;6.13;;
25331;SDS011;13284;52.748;13.452;2023-03-01T08:25:46;10.37;;;5.70;;
25331;SDS011;13284;52.748;13.452;2023-03-01T08:28:12;10.57;;;5.97;;
25331;SDS011;13284;52.748;13.452;2023-03-01T08:30:37;9.03;;;5.10;;
25331;SDS011;13284;52.748;13.452;2023-03-01T08:33:03;8.07;;;5.50;;
25331;SDS011;13284;52.748;13.452;2023-03-01T08:35:28;8.50;;;5.30;;
25331;SDS011;13284;52.748;13.452;2023-03-01T08:37:53;11.53;;;5.80;;
25331;SDS011;13284;52.748;13.452;2023-03-01T08:40:19;7.07;;;5.90;;
25331;SDS011;13284;52.748;13.452;2023-03-01T08:42:44;4.87;;;4.47;;
25331;SDS011;13284;52.748;13.452;2023-03-01T08:45:10;6.27;;;5.20;;
25331;SDS011;13284;52.748;13.452;2023-03-01T08:47:36;7.97;;;4.27;;
25331;SDS011;13284;52.748;13.452;2023-03-01T08:50:02;4.90;;;3.97;;
25331;SDS011;13284;52.748;13.452;2023-03-01T08:52:29;5.50;;;3.67;;
25331;SDS011;13284;52.748;13.452;2023-03-01T08:54:55;6.37;;;3.90;;
25331;SDS011;13284;52.748;13.452;2023-03-01T08:57:21;4.73;;;3.90;;
25331;SDS011;13284;52.748;13.452;2023-03-01T08:59:46;5.20;;;3.20;;
25331;SDS011;13284;52.748;13.452;2023-03-01T09:02:16;4.67;;;3.50;;
25331;SDS011;13284;52.748;13.452;2023-03-01T09:04:43;5.60;;;3.57;;
25331;SDS011;13284;52.748;13.452;2023-03-01T09:07:09;6.60;;;3.30;;
25331;SDS011;13284;52.748;13.452;2023-03-01T09:09:35;8.10;;;4.00;;
25331;SDS011;13284;52.748;13.452;2023-03-01T09:12:01;4.27;;;3.87;;
25331;SDS011;13284;52.748;13.452;2023-03-01T09:14:27;4.80;;;3.47;;
25331;SDS011;13284;52.748;13.452;2023-03-01T09:16:53;3.63;;;3.20;;
25331;SDS011;13284;52.748;13.452;2023-03-01T09:19:18;5.97;;;5.13;;
25331;SDS011;13284;52.748;13.452;2023-03-01T09:21:44;7.13;;;3.97;;
25331;SDS011;13284;52.748;13.452;2023-03-01T09:24:22;6.43;;;4.23;;
25331;SDS011;13284;52.748;13.452;2023-03-01T09:26:49;4.23;;;3.63;;
25331;SDS011;13284;52.748;13.452;2023-03-01T09:29:15;4.30;;;3.90;;
25331;SDS011;13284;52.748;13.452;2023-03-01T09:31:41;5.23;;;3.77;;
25331;SDS011;13284;52.748;13.452;2023-03-01T09:34:07;4.80;;;3.77;;
25331;SDS011;13284;52.748;13.452;2023-03-01T09:36:34;5.57;;;3.90;;
25331;SDS011;13284;52.748;13.452;2023-03-01T09:39:00;4.20;;;3.63;;
25331;SDS011;13284;52.748;13.452;2023-03-01T09:41:30;8.27;;;3.53;;
25331;SDS011;13284;52.748;13.452;2023-03-01T09:46:56;3.70;;;2.90;;
25331;SDS011;13284;52.748;13.452;2023-03-01T09:49:27;2.77;;;2.57;;
25331;SDS011;13284;52.748;13.452;2023-03-01T09:51:57;5.27;;;2.90;;
25331;SDS011;13284;52.748;13.452;2023-03-01T09:54:23;3.17;;;2.87;;
25331;SDS011;13284;52.748;13.452;2023-03-01T09:56:53;2.90;;;2.60;;
25331;SDS011;13284;52.748;13.452;2023-03-01T09:59:28;3.80;;;2.97;;
25331;SDS011;13284;52.748;13.452;2023-03-01T10:02:21;5.23;;;2.47;;
25331;SDS011;13284;52.748;13.452;2023-03-01T10:10:38;3.97;;;1.63;;
25331;SDS011;13284;52.748;13.452;2023-03-01T10:16:02;2.87;;;1.80;;
25331;SDS011;13284;52.748;13.452;2023-03-01T10:18:29;2.57;;;1.83;;
25331;SDS011;13284;52.748;13.452;2023-03-01T10:21:01;2.80;;;2.17;;
25331;SDS011;13284;52.748;13.452;2023-03-01T10:23:31;3.70;;;2.50;;
25331;SDS011;13284;52.748;13.452;2023-03-01T10:31:27;3.73;;;2.93;;
25331;SDS011;13284;52.748;13.452;2023-03-01T10:34:09;4.00;;;3.03;;
25331;SDS011;13284;52.748;13.452;2023-03-01T10:36:41;6.50;;;5.57;;
25331;SDS011;13284;52.748;13.452;2023-03-01T10:39:13;6.70;;;2.90;;
25331;SDS011;13284;52.748;13.452;2023-03-01T10:42:05;5.97;;;3.23;;
25331;SDS011;13284;52.748;13.452;2023-03-01T10:44:50;6.57;;;3.60;;
25331;SDS011;13284;52.748;13.452;2023-03-01T10:47:20;6.63;;;3.63;;
25331;SDS011;13284;52.748;13.452;2023-03-01T10:52:23;4.77;;;2.87;;
25331;SDS011;13284;52.748;13.452;2023-03-01T10:54:55;3.60;;;2.90;;
25331;SDS011;13284;52.748;13.452;2023-03-01T10:57:33;4.07;;;2.53;;
25331;SDS011;13284;52.748;13.452;2023-03-01T11:00:14;4.40;;;3.17;;
25331;SDS011;13284;52.748;13.452;2023-03-01T11:02:49;9.80;;;3.03;;
25331;SDS011;13284;52.748;13.452;2023-03-01T11:05:26;3.73;;;3.20;;
25331;SDS011;13284;52.748;13.452;2023-03-01T11:07:56;3.70;;;3.10;;
25331;SDS011;13284;52.748;13.452;2023-03-01T11:10:26;3.50;;;3.20;;
25331;SDS011;13284;52.748;13.452;2023-03-01T11:13:13;3.90;;;3.00;;
25331;SDS011;13284;52.748;13.452;2023-03-01T11:15:41;3.50;;;2.60;;
25331;SDS011;13284;52.748;13.452;2023-03-01T11:18:22;4.50;;;4.10;;
25331;SDS011;13284;52.748;13.452;2023-03-01T11:20:48;4.10;;;3.20;;
25331;SDS011;13284;52.748;13.452;2023-03-01T11:23:18;4.43;;;3.10;;
25331;SDS011;13284;52.748;13.452;2023-03-01T11:25:49;3.97;;;3.43;;
25331;SDS011;13284;52.748;13.452;2023-03-01T11:28:20;4.20;;;2.90;;
25331;SDS011;13284;52.748;13.452;2023-03-01T11:30:58;4.73;;;2.87;;
25331;SDS011;13284;52.748;13.452;2023-03-01T11:33:35;5.43;;;2.97;;
25331;SDS011;13284;52.748;13.452;2023-03-01T11:39:02;4.63;;;2.70;;
25331;SDS011;13284;52.748;13.452;2023-03-01T11:41:38;2.40;;;2.13;;
25331;SDS011;13284;52.748;13.452;2023-03-01T11:44:16;3.50;;;3.20;;
25331;SDS011;13284;52.748;13.452;2023-03-01T11:57:20;4.40;;;2.30;;
25331;SDS011;13284;52.748;13.452;2023-03-01T12:05:59;3.37;;;3.07;;
25331;SDS011;13284;52.748;13.452;2023-03-01T12:08:43;4.93;;;2.40;;
25331;SDS011;13284;52.748;13.452;2023-03-01T12:11:18;4.50;;;3.20;;
25331;SDS011;13284;52.748;13.452;2023-03-01T12:16:30;5.43;;;3.10;;
25331;SDS011;13284;52.748;13.452;2023-03-01T12:19:17;3.40;;;2.47;;
25331;SDS011;13284;52.748;13.452;2023-03-01T12:24:46;2.53;;;2.03;;
25331;SDS011;13284;52.748;13.452;2023-03-01T12:30:50;3.70;;;3.13;;
25331;SDS011;13284;52.748;13.452;2023-03-01T12:38:47;4.87;;;3.53;;
25331;SDS011;13284;52.748;13.452;2023-03-01T12:52:27;4.10;;;2.17;;
25331;SDS011;13284;52.748;13.452;2023-03-01T12:55:31;4.00;;;2.50;;
25331;SDS011;13284;52.748;13.452;2023-03-01T13:00:32;3.87;;;2.27;;
25331;SDS011;13284;52.748;13.452;2023-03-01T13:03:09;3.27;;;2.97;;
25331;SDS011;13284;52.748;13.452;2023-03-01T13:08:31;2.53;;;2.07;;
25331;SDS011;13284;52.748;13.452;2023-03-01T13:11:11;2.73;;;2.43;;
25331;SDS011;13284;52.748;13.452;2023-03-01T13:13:42;3.17;;;2.63;;
25331;SDS011;13284;52.748;13.452;2023-03-01T13:19:13;3.43;;;2.40;;
25331;SDS011;13284;52.748;13.452;2023-03-01T13:21:39;3.00;;;2.70;;
25331;SDS011;13284;52.748;13.452;2023-03-01T13:24:22;7.33;;;3.17;;
25331;SDS011;13284;52.748;13.452;2023-03-01T13:32:26;6.47;;;3.50;;
25331;SDS011;13284;52.748;13.452;2023-03-01T13:37:41;4.30;;;3.10;;
25331;SDS011;13284;52.748;13.452;2023-03-01T13:42:42;5.73;;;3.60;;
25331;SDS011;13284;52.748;13.452;2023-03-01T13:45:38;14.63;;;4.03;;
25331;SDS011;13284;52.748;13.452;2023-03-01T13:48:09;4.00;;;3.60;;
25331;SDS011;13284;52.748;13.452;2023-03-01T13:50:45;4.07;;;3.13;;
25331;SDS011;13284;52.748;13.452;2023-03-01T13:53:16;4.23;;;3.73;;
25331;SDS011;13284;52.748;13.452;2023-03-01T13:55:44;5.10;;;4.13;;
25331;SDS011;13284;52.748;13.452;2023-03-01T13:58:15;6.40;;;4.20;;
25331;SDS011;13284;52.748;13.452;2023-03-01T14:01:06;5.90;;;3.87;;
25331;SDS011;13284;52.748;13.452;2023-03-01T14:03:45;4.17;;;3.40;;
25331;SDS011;13284;52.748;13.452;2023-03-01T14:06:18;4.37;;;3.50;;
25331;SDS011;13284;52.748;13.452;2023-03-01T14:08:46;4.63;;;3.63;;
25331;SDS011;13284;52.748;13.452;2023-03-01T14:21:42;4.70;;;3.17;;
25331;SDS011;13284;52.748;13.452;2023-03-01T14:24:15;4.60;;;3.53;;
25331;SDS011;13284;52.748;13.452;2023-03-01T14:26:43;5.00;;;3.63;;
25331;SDS011;13284;52.748;13.452;2023-03-01T14:29:23;4.77;;;3.63;;
25331;SDS011;13284;52.748;13.452;2023-03-01T14:32:20;8.23;;;3.80;;
25331;SDS011;13284;52.748;13.452;2023-03-01T14:34:49;4.70;;;3.13;;
25331;SDS011;13284;52.748;13.452;2023-03-01T14:37:21;5.10;;;3.83;;
25331;SDS011;13284;52.748;13.452;2023-03-01T14:39:56;5.30;;;4.20;;
25331;SDS011;13284;52.748;13.452;2023-03-01T14:42:24;4.20;;;3.30;;
25331;SDS011;13284;52.748;13.452;2023-03-01T14:44:54;6.10;;;4.13;;
25331;SDS011;13284;52.748;13.452;2023-03-01T14:47:26;4.60;;;3.10;;
25331;SDS011;13284;52.748;13.452;2023-03-01T14:50:00;4.97;;;3.70;;
25331;SDS011;13284;52.748;13.452;2023-03-01T14:52:36;5.63;;;3.70;;
25331;SDS011;13284;52.748;13.452;2023-03-01T14:55:05;7.90;;;3.10;;
25331;SDS011;13284;52.748;13.452;2023-03-01T14:57:38;6.77;;;3.70;;
25331;SDS011;13284;52.748;13.452;2023-03-01T15:00:10;5.27;;;3.67;;
25331;SDS011;13284;52.748;13.452;2023-03-01T15:02:42;4.93;;;3.60;;
25331;SDS011;13284;52.748;13.452;2023-03-01T15:05:08;4.10;;;3.20;;
25331;SDS011;13284;52.748;13.452;2023-03-01T15:07:36;4.50;;;3.33;;
25331;SDS011;13284;52.748;13.452;2023-03-01T15:10:05;5.07;;;3.30;;
25331;SDS011;13284;52.748;13.452;2023-03-01T15:15:00;5.50;;;3.40;;
25331;SDS011;13284;52.748;13.452;2023-03-01T15:17:43;4.37;;;3.17;;
25331;SDS011;13284;52.748;13.452;2023-03-01T15:20:16;5.47;;;3.80;;
25331;SDS011;13284;52.748;13.452;2023-03-01T15:22:46;5.30;;;3.43;;
25331;SDS011;13284;52.748;13.452;2023-03-01T15:25:14;6.67;;;3.40;;
25331;SDS011;13284;52.748;13.452;2023-03-01T15:27:47;5.10;;;3.93;;
25331;SDS011;13284;52.748;13.452;2023-03-01T15:30:19;3.43;;;2.90;;
25331;SDS011;13284;52.748;13.452;2023-03-01T15:35:45;4.27;;;3.47;;
25331;SDS011;13284;52.748;13.452;2023-03-01T15:41:01;5.43;;;3.67;;
25331;SDS011;13284;52.748;13.452;2023-03-01T15:43:44;4.30;;;2.80;;
25331;SDS011;13284;52.748;13.452;2023-03-01T15:48:58;4.90;;;3.30;;
25331;SDS011;13284;52.748;13.452;2023-03-01T15:51:28;4.67;;;2.93;;
25331;SDS011;13284;52.748;13.452;2023-03-01T15:54:05;5.33;;;3.73;;
25331;SDS011;13284;52.748;13.452;2023-03-01T15:56:37;3.50;;;3.07;;
25331;SDS011;13284;52.748;13.452;2023-03-01T15:59:03;7.60;;;3.17;;
25331;SDS011;13284;52.748;13.452;2023-03-01T16:01:28;3.33;;;2.93;;
25331;SDS011;13284;52.748;13.452;2023-03-01T16:03:54;4.23;;;2.60;;
25331;SDS011;13284;52.748;13.452;2023-03-01T16:06:19;5.27;;;3.77;;
25331;SDS011;13284;52.748;13.452;2023-03-01T16:08:45;4.00;;;3.30;;
25331;SDS011;13284;52.748;13.452;2023-03-01T16:11:13;4.57;;;2.80;;
25331;SDS011;13284;52.748;13.452;2023-03-01T16:13:42;4.87;;;3.67;;
25331;SDS011;13284;52.748;13.452;2023-03-01T16:16:12;3.50;;;3.20;;
25331;SDS011;13284;52.748;13.452;2023-03-01T16:18:41;3.70;;;2.70;;
25331;SDS011;13284;52.748;13.452;2023-03-01T16:21:10;4.47;;;3.13;;
25331;SDS011;13284;52.748;13.452;2023-03-01T16:23:42;6.17;;;3.40;;
25331;SDS011;13284;52.748;13.452;2023-03-01T16:26:09;5.00;;;4.37;;
25331;SDS011;13284;52.748;13.452;2023-03-01T16:28:35;5.67;;;3.60;;
25331;SDS011;13284;52.748;13.452;2023-03-01T16:31:01;6.40;;;3.90;;
25331;SDS011;13284;52.748;13.452;2023-03-01T16:33:26;5.40;;;4.10;;
25331;SDS011;13284;52.748;13.452;2023-03-01T16:35:52;6.33;;;3.70;;
25331;SDS011;13284;52.748;13.452;2023-03-01T16:38:18;4.90;;;4.23;;
25331;SDS011;13284;52.748;13.452;2023-03-01T16:40:46;9.37;;;4.17;;